KABR/ABR METAR and TAF weather

Enter ICAO airport designator
Station Type Date Time Source
KABR METAR 2019/04/24 21:53 UTC NOAA

KABR 242153Z AUTO 32013G23KT 10SM SCT090 26/03 A2969 RMK AO2 SLP051 T02610033


Station Type Date Time Source
KABR Decoded METAR 2019/04/24 21:53 UTC NOAA

ABERDEEN REGIONAL AIRPORT, SD, United States (KABR) 45-27N 098-25W 400M
Apr 24, 2019 - 05:53 PM EDT / 2019.04.24 2153 UTC
Wind: from the NW (320 degrees) at 15 MPH (13 KT) gusting to 26 MPH (23 KT):0
Visibility: 10 mile(s):0
Sky conditions: partly cloudy
Temperature: 79.0 F (26.1 C)
Dew Point: 37.9 F (3.3 C)
Relative Humidity: 22%
Pressure (altimeter): 29.69 in. Hg (1005 hPa)
ob: KABR 242153Z AUTO 32013G23KT 10SM SCT090 26/03 A2969 RMK AO2 SLP051 T02610033
cycle: 22

Station Type Date Time Source
KABR TAF 2019/04/24 18:36 UTC NOAA

TAF KABR 241734Z 2418/2518 28015G22KT P6SM VCSH FEW060 SCT200
FM242100 31017G24KT P6SM SCT080 BKN250
FM250200 33010KT P6SM BKN200

Example: see airport list